createdAt,value
2019-02-22T00:00:30.419Z,99.99
2019-02-22T00:01:10.180Z,99.99
2019-02-22T00:02:09.402Z,99.99
2019-02-22T00:03:09.366Z,99.99
2019-02-22T00:04:30.420Z,99.99
2019-02-22T00:05:30.386Z,99.99
2019-02-22T00:06:09.381Z,99.99
2019-02-22T00:07:09.374Z,99.99
2019-02-22T00:08:09.374Z,99.99
2019-02-22T00:09:30.369Z,99.99
2019-02-22T00:10:30.553Z,99.99
2019-02-22T00:11:09.381Z,99.99
2019-02-22T00:12:09.351Z,99.99
2019-02-22T00:13:09.340Z,99.99
2019-02-22T00:14:30.366Z,99.99
2019-02-22T00:15:30.332Z,99.99
2019-02-22T00:16:09.320Z,99.99
2019-02-22T00:17:09.327Z,99.99
2019-02-22T00:18:09.316Z,99.99
2019-02-22T00:19:30.353Z,99.99
2019-02-22T00:20:30.325Z,99.99
2019-02-22T00:21:09.305Z,99.99
2019-02-22T00:22:09.310Z,99.99
2019-02-22T00:23:09.363Z,99.99
2019-02-22T00:24:30.304Z,99.99
2019-02-22T00:25:30.284Z,99.99
2019-02-22T00:26:10.964Z,99.99
2019-02-22T00:27:09.262Z,99.99
2019-02-22T00:28:09.277Z,99.99
2019-02-22T00:29:30.281Z,99.99
2019-02-22T00:30:30.264Z,99.99
2019-02-22T00:31:09.299Z,99.99
2019-02-22T00:32:10.244Z,99.99
2019-02-22T00:33:09.244Z,99.99
2019-02-22T00:34:30.251Z,99.99
2019-02-22T00:35:30.331Z,99.99
2019-02-22T00:36:09.239Z,99.99
2019-02-22T00:37:09.284Z,99.99
2019-02-22T00:38:09.231Z,99.99
2019-02-22T00:39:30.225Z,99.99
2019-02-22T00:40:30.219Z,99.99
2019-02-22T00:41:12.257Z,99.99
2019-02-22T00:42:09.199Z,99.99
2019-02-22T00:43:09.197Z,99.99
2019-02-22T00:44:30.205Z,99.99
2019-02-22T00:45:30.191Z,99.99
2019-02-22T00:46:09.180Z,99.99
2019-02-22T00:47:09.193Z,99.99
2019-02-22T00:48:09.182Z,99.99
2019-02-22T00:49:30.182Z,99.99
2019-02-22T00:50:30.178Z,99.99
2019-02-22T00:51:09.161Z,99.99
2019-02-22T00:52:09.158Z,99.99
2019-02-22T00:53:11.460Z,99.99
2019-02-22T00:54:30.153Z,99.99
2019-02-22T00:55:30.148Z,99.99
2019-02-22T00:56:09.136Z,99.99
2019-02-22T00:57:09.168Z,99.99
2019-02-22T00:58:09.129Z,99.99
2019-02-22T00:59:30.132Z,99.99
2019-02-22T01:00:32.083Z,99.99
2019-02-22T01:01:09.107Z,99.99
2019-02-22T01:02:09.116Z,99.99
2019-02-22T01:03:09.097Z,99.99
2019-02-22T01:04:30.104Z,98.94
2019-02-22T01:05:30.099Z,99.99
2019-02-22T01:06:09.091Z,99.99
2019-02-22T01:07:09.081Z,99.99
2019-02-22T01:08:09.075Z,99.99
2019-02-22T01:09:30.049Z,99.80
2019-02-22T01:10:31.510Z,99.61
2019-02-22T01:11:09.058Z,99.90
2019-02-22T01:12:09.053Z,99.42
2019-02-22T01:13:09.057Z,99.99
2019-02-22T01:14:30.060Z,99.99
2019-02-22T01:15:30.041Z,99.99
2019-02-22T01:16:09.039Z,99.99
2019-02-22T01:17:09.036Z,99.99
2019-02-22T01:18:09.023Z,99.99
2019-02-22T01:19:30.032Z,99.90
2019-02-22T01:20:30.027Z,99.99
2019-02-22T01:21:09.019Z,99.99
2019-02-22T01:22:09.009Z,99.99
2019-02-22T01:23:09.001Z,99.99
2019-02-22T01:24:30.011Z,99.99
2019-02-22T01:25:30.013Z,99.99
2019-02-22T01:26:08.987Z,99.99
2019-02-22T01:27:08.975Z,99.99
2019-02-22T01:28:08.984Z,99.99
2019-02-22T01:29:29.987Z,99.99
2019-02-22T01:30:29.986Z,99.99
2019-02-22T01:31:08.960Z,99.99
2019-02-22T01:32:08.961Z,99.99
2019-02-22T01:33:09.390Z,99.71
2019-02-22T01:34:29.961Z,99.99
2019-02-22T01:35:29.971Z,99.61
2019-02-22T01:36:08.946Z,99.80
2019-02-22T01:37:08.938Z,98.94
2019-02-22T01:38:08.936Z,98.47
2019-02-22T01:39:29.945Z,96.94
2019-02-22T01:40:29.928Z,96.66
2019-02-22T01:41:08.914Z,96.56
2019-02-22T01:42:08.919Z,96.08
2019-02-22T01:43:08.900Z,96.17
2019-02-22T01:44:29.908Z,96.66
2019-02-22T01:45:29.903Z,96.17
2019-02-22T01:46:08.897Z,96.56
2019-02-22T01:47:08.903Z,96.56
2019-02-22T01:48:08.886Z,96.94
2019-02-22T01:49:29.893Z,97.22
2019-02-22T01:50:29.868Z,96.56
2019-02-22T01:51:08.875Z,96.17
2019-02-22T01:52:08.864Z,96.75
2019-02-22T01:53:08.857Z,95.32
2019-02-22T01:54:29.851Z,95.61
2019-02-22T01:55:29.852Z,95.41
2019-02-22T01:56:08.845Z,94.74
2019-02-22T01:57:08.842Z,95.12
2019-02-22T01:58:08.835Z,94.56
2019-02-22T01:59:29.865Z,94.84
2019-02-22T02:00:29.828Z,95.03
2019-02-22T02:01:08.802Z,94.84
2019-02-22T02:02:08.808Z,94.46
2019-02-22T02:03:08.791Z,94.17
2019-02-22T02:04:29.817Z,94.07
2019-02-22T02:05:29.801Z,93.88
2019-02-22T02:06:08.793Z,93.60
2019-02-22T02:07:08.809Z,93.98
2019-02-22T02:08:08.757Z,93.98
2019-02-22T02:09:29.781Z,93.60
2019-02-22T02:10:29.732Z,93.70
2019-02-22T02:11:08.759Z,93.79
2019-02-22T02:12:08.765Z,93.70
2019-02-22T02:13:08.759Z,93.70
2019-02-22T02:14:29.945Z,94.36
2019-02-22T02:15:29.759Z,93.79
2019-02-22T02:16:08.744Z,93.98
2019-02-22T02:17:08.732Z,93.79
2019-02-22T02:18:08.750Z,93.79
2019-02-22T02:19:29.766Z,93.22
2019-02-22T02:20:29.789Z,93.31
2019-02-22T02:21:08.717Z,92.55
2019-02-22T02:22:08.710Z,92.46
2019-02-22T02:23:08.698Z,92.46
2019-02-22T02:24:29.708Z,92.60
2019-02-22T02:25:29.722Z,91.83
2019-02-22T02:26:08.708Z,90.22
2019-02-22T02:27:08.681Z,89.64
2019-02-22T02:28:08.699Z,89.74
2019-02-22T02:29:29.679Z,89.74
2019-02-22T02:30:29.682Z,88.31
2019-02-22T02:31:08.669Z,88.40
2019-02-22T02:32:08.665Z,88.21
2019-02-22T02:33:08.655Z,88.88
2019-02-22T02:34:29.655Z,88.12
2019-02-22T02:35:29.641Z,87.35
2019-02-22T02:36:08.632Z,87.35
2019-02-22T02:37:08.638Z,88.31
2019-02-22T02:38:08.639Z,87.35
2019-02-22T02:39:29.643Z,87.35
2019-02-22T02:40:29.625Z,88.88
2019-02-22T02:41:11.240Z,88.31
2019-02-22T02:42:08.589Z,88.69
2019-02-22T02:43:08.599Z,88.69
2019-02-22T02:44:29.587Z,88.40
2019-02-22T02:45:30.302Z,88.21
2019-02-22T02:46:08.589Z,87.83
2019-02-22T02:47:08.590Z,87.07
2019-02-22T02:48:08.582Z,88.69
2019-02-22T02:49:29.581Z,87.35
2019-02-22T02:50:29.595Z,88.59
2019-02-22T02:51:08.569Z,88.98
2019-02-22T02:52:08.561Z,87.83
2019-02-22T02:53:08.553Z,87.54
2019-02-22T02:54:29.589Z,87.64
2019-02-22T02:55:29.548Z,88.12
2019-02-22T02:56:08.536Z,88.21
2019-02-22T02:57:08.504Z,88.21
2019-02-22T02:58:08.531Z,88.12
2019-02-22T02:59:29.531Z,88.21
2019-02-22T03:00:29.515Z,87.35
2019-02-22T03:01:08.567Z,86.59
2019-02-22T03:02:08.511Z,86.88
2019-02-22T03:03:08.505Z,87.26
2019-02-22T03:04:29.507Z,87.64
2019-02-22T03:05:29.553Z,87.54
2019-02-22T03:06:08.487Z,87.64
2019-02-22T03:07:08.472Z,87.16
2019-02-22T03:08:08.489Z,87.45
2019-02-22T03:09:29.477Z,88.21
2019-02-22T03:10:31.479Z,87.35
2019-02-22T03:11:19.749Z,87.26
2019-02-22T03:12:08.440Z,87.16
2019-02-22T03:13:08.443Z,86.98
2019-02-22T03:14:29.446Z,87.54
2019-02-22T03:15:29.441Z,87.16
2019-02-22T03:16:08.424Z,87.07
2019-02-22T03:17:08.420Z,86.49
2019-02-22T03:18:08.393Z,87.16
2019-02-22T03:19:29.421Z,87.35
2019-02-22T03:20:29.400Z,87.54
2019-02-22T03:21:08.409Z,87.54
2019-02-22T03:22:08.402Z,87.54
2019-02-22T03:23:08.395Z,87.74
2019-02-22T03:24:29.500Z,87.07
2019-02-22T03:25:29.392Z,86.21
2019-02-22T03:26:08.378Z,86.02
2019-02-22T03:27:08.378Z,86.21
2019-02-22T03:28:08.401Z,86.98
2019-02-22T03:29:29.384Z,86.59
2019-02-22T03:30:29.371Z,86.98
2019-02-22T03:31:08.495Z,87.16
2019-02-22T03:32:08.349Z,86.59
2019-02-22T03:33:08.354Z,85.25
2019-02-22T03:34:29.373Z,85.54
2019-02-22T03:35:29.400Z,85.73
2019-02-22T03:36:08.945Z,85.25
2019-02-22T03:37:08.337Z,84.78
2019-02-22T03:38:08.313Z,85.35
2019-02-22T03:39:29.299Z,85.25
2019-02-22T03:40:29.311Z,85.25
2019-02-22T03:41:08.311Z,85.35
2019-02-22T03:42:08.282Z,85.83
2019-02-22T03:43:08.294Z,86.11
2019-02-22T03:44:29.262Z,85.73
2019-02-22T03:45:29.262Z,85.54
2019-02-22T03:46:08.260Z,85.25
2019-02-22T03:47:08.254Z,86.02
2019-02-22T03:48:08.250Z,86.02
2019-02-22T03:49:29.258Z,85.93
2019-02-22T03:50:29.245Z,86.21
2019-02-22T03:51:08.256Z,86.98
2019-02-22T03:52:08.237Z,87.64
2019-02-22T03:53:08.230Z,86.78
2019-02-22T03:54:29.236Z,85.64
2019-02-22T03:55:29.225Z,85.83
2019-02-22T03:56:08.289Z,86.11
2019-02-22T03:57:08.203Z,86.59
2019-02-22T03:58:08.202Z,86.59
2019-02-22T03:59:29.209Z,87.07
2019-02-22T04:00:29.213Z,86.98
2019-02-22T04:01:08.190Z,87.16
2019-02-22T04:02:08.179Z,87.54
2019-02-22T04:03:08.169Z,86.69
2019-02-22T04:04:29.177Z,87.83
2019-02-22T04:05:29.246Z,86.98
2019-02-22T04:06:08.168Z,86.88
2019-02-22T04:07:09.164Z,87.54
2019-02-22T04:08:08.159Z,87.83
2019-02-22T04:09:29.138Z,87.54
2019-02-22T04:10:29.184Z,87.93
2019-02-22T04:11:08.127Z,88.31
2019-02-22T04:12:08.123Z,87.45
2019-02-22T04:13:08.128Z,86.98
2019-02-22T04:14:29.140Z,86.69
2019-02-22T04:15:29.160Z,86.59
2019-02-22T04:16:08.106Z,86.49
2019-02-22T04:17:08.105Z,87.54
2019-02-22T04:19:40.807Z,86.98
2019-02-22T04:20:40.794Z,87.07
2019-02-22T04:22:35.140Z,88.21
2019-02-22T04:23:35.131Z,88.50
2019-02-22T04:25:29.515Z,88.21
2019-02-22T04:26:29.488Z,87.74
2019-02-22T04:28:23.850Z,87.26
2019-02-22T04:29:23.858Z,87.93
2019-02-22T04:31:18.401Z,88.21
2019-02-22T04:32:18.203Z,88.98
2019-02-22T04:34:12.563Z,89.74
2019-02-22T04:35:12.552Z,88.98
2019-02-22T04:37:06.952Z,89.54
2019-02-22T04:38:06.916Z,89.26
2019-02-22T04:40:01.289Z,87.93
2019-02-22T04:41:01.279Z,87.93
2019-02-22T04:42:55.662Z,87.93
2019-02-22T04:43:55.625Z,87.26
2019-02-22T04:45:49.982Z,88.69
2019-02-22T04:46:49.993Z,88.31
2019-02-22T04:48:44.376Z,88.78
2019-02-22T04:49:44.335Z,89.17
2019-02-22T04:51:38.708Z,88.21
2019-02-22T04:52:38.698Z,88.40
2019-02-22T04:54:33.174Z,88.98
2019-02-22T04:55:33.061Z,88.50
2019-02-22T04:57:27.416Z,88.21
2019-02-22T04:58:27.406Z,88.21
2019-02-22T05:00:21.813Z,87.07
2019-02-22T05:01:21.764Z,86.30
2019-02-22T05:03:16.138Z,85.35
2019-02-22T05:04:16.129Z,85.16
2019-02-22T05:06:10.579Z,83.54
2019-02-22T05:07:10.487Z,82.92
2019-02-22T05:09:04.853Z,82.78
2019-02-22T05:10:04.845Z,84.36
2019-02-22T05:12:10.409Z,83.16
2019-02-22T05:12:59.207Z,82.83
2019-02-22T05:14:53.570Z,81.40
2019-02-22T05:15:53.560Z,82.45
2019-02-22T05:17:48.004Z,83.25
2019-02-22T05:18:47.921Z,82.49
2019-02-22T05:20:42.288Z,80.39
2019-02-22T05:21:42.281Z,82.68
2019-02-22T05:23:36.651Z,81.40
2019-02-22T05:24:36.642Z,80.96
2019-02-22T05:26:30.995Z,80.96
2019-02-22T05:27:30.988Z,80.49
2019-02-22T05:29:25.366Z,79.82
2019-02-22T05:30:25.340Z,81.54
2019-02-22T05:32:19.712Z,79.88
2019-02-22T05:33:19.711Z,78.25
2019-02-22T05:35:14.094Z,77.40
2019-02-22T05:36:14.052Z,79.02
2019-02-22T05:38:08.420Z,77.20
2019-02-22T05:39:18.435Z,76.06
2019-02-22T05:41:02.807Z,75.96
2019-02-22T05:42:02.776Z,73.96
2019-02-22T05:43:57.146Z,74.73
2019-02-22T05:44:57.128Z,73.58
2019-02-22T05:46:59.848Z,75.11
2019-02-22T05:47:51.489Z,74.54
2019-02-22T05:49:45.862Z,77.30
2019-02-22T05:50:45.848Z,75.78
2019-02-22T05:52:40.226Z,76.64
2019-02-22T05:53:40.212Z,75.96
2019-02-22T05:55:34.586Z,77.40
2019-02-22T05:56:34.582Z,78.83
2019-02-22T05:58:28.941Z,79.11
2019-02-22T05:59:28.935Z,79.21
2019-02-22T06:01:23.295Z,77.87
2019-02-22T06:02:23.288Z,78.35
2019-02-22T06:04:17.680Z,79.68
2019-02-22T06:05:17.648Z,78.44
2019-02-22T06:07:14.479Z,76.82
2019-02-22T06:08:12.004Z,77.97
2019-02-22T06:10:06.407Z,79.21
2019-02-22T06:11:06.369Z,79.30
2019-02-22T06:13:00.733Z,78.92
2019-02-22T06:14:00.733Z,77.40
2019-02-22T06:15:55.112Z,77.40
2019-02-22T06:16:55.086Z,78.44
2019-02-22T06:18:49.475Z,77.69
2019-02-22T06:19:49.442Z,76.73
2019-02-22T06:21:43.829Z,75.59
2019-02-22T06:22:43.805Z,75.30
2019-02-22T06:24:38.167Z,75.96
2019-02-22T06:25:38.157Z,75.11
2019-02-22T06:27:32.549Z,76.25
2019-02-22T06:28:32.524Z,77.40
2019-02-22T06:30:26.879Z,75.01
2019-02-22T06:31:26.866Z,75.30
2019-02-22T06:33:21.500Z,76.25
2019-02-22T06:34:21.228Z,74.63
2019-02-22T06:36:15.621Z,69.68
2019-02-22T06:37:15.587Z,70.92
2019-02-22T06:39:09.950Z,71.68
2019-02-22T06:40:09.934Z,73.58
2019-02-22T06:42:04.299Z,72.25
2019-02-22T06:43:04.289Z,73.01
2019-02-22T06:44:58.658Z,71.30
2019-02-22T06:45:58.697Z,73.68
2019-02-22T06:47:53.025Z,73.68
2019-02-22T06:48:53.007Z,76.82
2019-02-22T06:50:50.575Z,73.58
2019-02-22T06:51:50.663Z,72.25
2019-02-22T06:53:44.922Z,70.15
2019-02-22T06:54:44.915Z,71.77
2019-02-22T06:56:39.299Z,70.92
2019-02-22T06:57:39.278Z,71.20
2019-02-22T06:59:33.783Z,70.15
2019-02-22T07:00:33.630Z,70.63
2019-02-22T07:02:28.032Z,69.10
2019-02-22T07:03:27.990Z,69.96
2019-02-22T07:05:22.356Z,70.59
2019-02-22T07:06:22.348Z,67.45
2019-02-22T07:08:16.822Z,70.21
2019-02-22T07:09:16.728Z,67.35
2019-02-22T07:11:11.099Z,66.02
2019-02-22T07:12:11.100Z,66.97
2019-02-22T07:14:05.470Z,69.07
2019-02-22T07:15:05.448Z,68.98
2019-02-22T07:16:59.815Z,70.12
2019-02-22T07:17:59.810Z,69.74
2019-02-22T07:19:54.173Z,69.26
2019-02-22T07:20:54.164Z,69.26
2019-02-22T07:22:48.523Z,71.07
2019-02-22T07:23:48.511Z,70.69
2019-02-22T07:25:42.965Z,71.45
2019-02-22T07:26:42.870Z,74.50
2019-02-22T07:28:37.238Z,71.93
2019-02-22T07:29:37.234Z,71.26
2019-02-22T07:31:31.699Z,72.69
2019-02-22T07:32:31.582Z,72.69
2019-02-22T07:34:26.135Z,74.40
2019-02-22T07:35:26.073Z,72.41
2019-02-22T07:37:20.581Z,71.36
2019-02-22T07:38:20.531Z,73.17
2019-02-22T07:40:14.904Z,70.78
2019-02-22T07:41:14.958Z,70.69
2019-02-22T07:43:09.340Z,75.84
2019-02-22T07:44:09.270Z,79.07
2019-02-22T07:46:03.643Z,76.12
2019-02-22T07:47:03.625Z,75.45
2019-02-22T07:48:58.020Z,78.69
2019-02-22T07:49:57.978Z,80.88
2019-02-22T07:51:52.345Z,79.74
2019-02-22T07:52:52.336Z,79.07
2019-02-22T07:54:46.750Z,79.64
2019-02-22T07:55:46.694Z,80.22
2019-02-22T07:57:41.083Z,79.74
2019-02-22T07:58:41.072Z,79.64
2019-02-22T08:00:35.475Z,80.22
2019-02-22T08:01:46.601Z,81.65
2019-02-22T08:03:29.819Z,79.83
2019-02-22T08:04:29.785Z,81.46
2019-02-22T08:06:24.258Z,82.50
2019-02-22T08:07:24.149Z,82.31
2019-02-22T08:09:18.541Z,82.89
2019-02-22T08:10:18.499Z,82.41
2019-02-22T08:12:12.874Z,83.93
2019-02-22T08:13:19.739Z,82.50
2019-02-22T08:15:07.245Z,80.79
2019-02-22T08:16:07.216Z,82.31
2019-02-22T08:18:01.618Z,84.50
2019-02-22T08:19:02.102Z,85.27
2019-02-22T08:20:56.053Z,86.55
2019-02-22T08:21:56.018Z,88.26
2019-02-22T08:23:50.388Z,86.41
2019-02-22T08:24:50.409Z,86.69
2019-02-22T08:26:44.920Z,87.84
2019-02-22T08:27:52.958Z,88.41
2019-02-22T08:29:39.388Z,88.12
2019-02-22T08:30:39.248Z,88.60
2019-02-22T08:32:33.674Z,87.07
2019-02-22T08:33:33.633Z,88.12
2019-02-22T08:35:27.995Z,88.12
2019-02-22T08:36:27.987Z,87.88
2019-02-22T08:38:22.378Z,91.22
2019-02-22T08:39:22.336Z,90.64
2019-02-22T08:41:15.696Z,90.45
2019-02-22T08:42:15.691Z,91.69
2019-02-22T08:44:10.548Z,91.13
2019-02-22T08:45:10.050Z,91.98
2019-02-22T08:47:04.401Z,94.65
2019-02-22T08:48:04.393Z,94.08
2019-02-22T08:49:58.818Z,92.08
2019-02-22T08:50:58.766Z,92.55
2019-02-22T08:52:53.148Z,95.12
2019-02-22T08:53:53.132Z,93.70
2019-02-22T08:55:47.522Z,93.70
2019-02-22T08:56:47.483Z,93.51
2019-02-22T08:58:41.848Z,94.17
2019-02-22T08:59:41.843Z,94.37
2019-02-22T09:01:36.240Z,94.27
2019-02-22T09:02:36.200Z,93.98
2019-02-22T09:04:30.578Z,93.12
2019-02-22T09:05:30.636Z,94.08
2019-02-22T09:07:24.957Z,91.13
2019-02-22T09:08:24.918Z,91.13
2019-02-22T09:10:19.298Z,92.46
2019-02-22T09:11:19.277Z,93.88
2019-02-22T09:13:13.749Z,92.08
2019-02-22T09:14:13.663Z,93.22
2019-02-22T09:16:08.020Z,91.98
2019-02-22T09:17:07.998Z,91.79
2019-02-22T09:19:02.370Z,92.74
2019-02-22T09:20:02.361Z,92.65
2019-02-22T09:21:56.727Z,92.36
2019-02-22T09:22:56.713Z,92.84
2019-02-22T09:24:51.099Z,91.88
2019-02-22T09:25:51.089Z,91.03
2019-02-22T09:27:45.437Z,89.03
2019-02-22T09:28:45.432Z,88.36
2019-02-22T09:30:39.816Z,87.88
2019-02-22T09:31:39.785Z,85.97
2019-02-22T09:33:34.157Z,86.88
2019-02-22T09:34:34.144Z,88.31
2019-02-22T09:36:28.532Z,83.17
2019-02-22T09:37:28.503Z,86.03
2019-02-22T09:39:22.872Z,83.45
2019-02-22T09:40:22.865Z,82.03
2019-02-22T09:42:17.278Z,82.26
2019-02-22T09:43:17.233Z,85.88
2019-02-22T09:45:11.591Z,88.26
2019-02-22T09:46:11.582Z,89.40
2019-02-22T09:48:06.239Z,93.22
2019-02-22T09:49:05.941Z,92.84
2019-02-22T09:51:00.309Z,93.22
2019-02-22T09:52:00.298Z,91.22
2019-02-22T09:53:54.670Z,91.08
2019-02-22T09:54:54.668Z,91.55
2019-02-22T09:56:50.864Z,89.84
2019-02-22T09:57:49.015Z,90.03
2019-02-22T09:59:43.372Z,86.79
2019-02-22T10:00:43.413Z,89.07
2019-02-22T10:02:37.738Z,88.89
2019-02-22T10:03:37.721Z,88.74
2019-02-22T10:05:32.129Z,93.12
2019-02-22T10:06:32.077Z,92.08
2019-02-22T10:08:26.441Z,93.70
2019-02-22T10:09:26.433Z,96.36
2019-02-22T10:11:20.831Z,94.17
2019-02-22T10:12:20.788Z,94.27
2019-02-22T10:14:15.178Z,97.13
2019-02-22T10:15:15.183Z,95.98
2019-02-22T10:17:09.542Z,94.03
2019-02-22T10:18:09.500Z,93.55
2019-02-22T10:20:03.869Z,95.46
2019-02-22T10:21:03.864Z,94.03
2019-02-22T10:22:58.255Z,96.75
2019-02-22T10:23:58.213Z,96.27
2019-02-22T10:25:51.666Z,95.32
2019-02-22T10:26:51.650Z,95.12
2019-02-22T10:28:46.132Z,98.65
2019-02-22T10:29:46.014Z,98.65
2019-02-22T10:31:40.380Z,97.22
2019-02-22T10:32:40.370Z,96.46
2019-02-22T10:34:34.808Z,95.17
2019-02-22T10:35:34.733Z,94.41
2019-02-22T10:37:29.267Z,93.98
2019-02-22T10:38:29.251Z,91.03
2019-02-22T10:40:23.620Z,84.69
2019-02-22T10:41:23.610Z,83.80
2019-02-22T10:43:17.978Z,78.65
2019-02-22T10:44:18.106Z,79.03
2019-02-22T10:46:12.438Z,78.65
2019-02-22T10:47:12.324Z,77.70
2019-02-22T10:49:06.691Z,76.42
2019-02-22T10:50:06.678Z,74.62
2019-02-22T10:52:01.124Z,78.33
2019-02-22T10:53:02.370Z,73.66
2019-02-22T10:54:55.399Z,73.76
2019-02-22T10:55:55.379Z,73.47
2019-02-22T10:57:49.839Z,73.76
2019-02-22T10:58:49.783Z,74.52
2019-02-22T11:00:44.102Z,71.57
2019-02-22T11:01:44.093Z,69.67
2019-02-22T11:03:38.477Z,70.05
2019-02-22T11:04:38.497Z,70.90
2019-02-22T11:06:32.804Z,69.67
2019-02-22T11:07:32.798Z,70.52
2019-02-22T11:09:27.196Z,71.06
2019-02-22T11:10:27.149Z,70.77
2019-02-22T11:12:21.532Z,68.49
2019-02-22T11:13:21.576Z,68.30
2019-02-22T11:15:16.931Z,75.81
2019-02-22T11:16:16.903Z,74.20
2019-02-22T11:18:11.266Z,70.77
2019-02-22T11:19:11.265Z,72.01
2019-02-22T11:21:09.858Z,70.01
2019-02-22T11:22:09.815Z,67.92
2019-02-22T11:23:09.828Z,68.40
2019-02-22T11:24:09.799Z,72.20
2019-02-22T11:25:09.792Z,71.53
2019-02-22T11:26:09.879Z,69.82
2019-02-22T11:27:09.779Z,71.53
2019-02-22T11:28:09.770Z,67.44
2019-02-22T11:29:09.759Z,67.44
2019-02-22T11:30:09.759Z,66.87
2019-02-22T11:31:09.749Z,65.80
2019-02-22T11:32:09.743Z,64.27
2019-02-22T11:33:09.731Z,63.17
2019-02-22T11:34:09.720Z,69.69
2019-02-22T11:35:09.719Z,67.50
2019-02-22T11:36:09.704Z,64.94
2019-02-22T11:37:09.698Z,61.71
2019-02-22T11:38:09.692Z,61.99
2019-02-22T11:39:09.681Z,59.80
2019-02-22T11:40:09.673Z,59.99
2019-02-22T11:41:09.664Z,58.85
2019-02-22T11:42:09.731Z,56.10
2019-02-22T11:43:09.650Z,52.20
2019-02-22T11:44:09.663Z,53.43
2019-02-22T11:45:09.635Z,54.67
2019-02-22T11:46:09.635Z,56.67
2019-02-22T11:47:09.611Z,55.81
2019-02-22T11:48:09.688Z,55.62
2019-02-22T11:49:09.596Z,60.94
2019-02-22T11:50:09.587Z,57.81
2019-02-22T11:51:09.580Z,60.16
2019-02-22T11:52:09.571Z,58.35
2019-02-22T11:53:09.567Z,57.62
2019-02-22T11:54:09.555Z,58.35
2019-02-22T11:55:09.704Z,58.44
2019-02-22T11:56:09.545Z,54.26
2019-02-22T11:57:09.610Z,56.35
2019-02-22T11:58:09.656Z,57.11
2019-02-22T11:59:09.567Z,59.01
2019-02-22T12:00:09.505Z,57.50
2019-02-22T12:01:09.565Z,57.87
2019-02-22T12:02:09.485Z,58.06
2019-02-22T12:03:23.599Z,59.49
2019-02-22T12:04:09.472Z,58.92
2019-02-22T12:05:09.460Z,61.96
2019-02-22T12:06:09.450Z,63.10
2019-02-22T12:07:09.440Z,65.00
2019-02-22T12:08:09.435Z,62.62
2019-02-22T12:09:09.425Z,65.00
2019-02-22T12:10:09.416Z,68.13
2019-02-22T12:11:09.414Z,70.89
2019-02-22T12:12:09.400Z,72.03
2019-02-22T12:13:10.191Z,70.99
2019-02-22T12:14:09.432Z,72.89
2019-02-22T12:15:09.372Z,74.31
2019-02-22T12:16:09.370Z,77.26
2019-02-22T12:17:09.354Z,75.74
2019-02-22T12:18:09.354Z,82.77
2019-02-22T12:19:09.338Z,82.91
2019-02-22T12:20:09.345Z,82.29
2019-02-22T12:21:09.352Z,84.77
2019-02-22T12:22:09.309Z,84.72
2019-02-22T12:23:09.303Z,87.76
2019-02-22T12:24:09.293Z,88.71
2019-02-22T12:25:09.284Z,91.28
2019-02-22T12:26:09.277Z,90.89
2019-02-22T12:27:09.270Z,92.03
2019-02-22T12:28:09.280Z,90.80
2019-02-22T12:29:09.318Z,91.66
2019-02-22T12:30:09.241Z,90.99
2019-02-22T12:31:09.252Z,90.14
2019-02-22T12:32:09.221Z,90.04
2019-02-22T12:33:09.214Z,91.75
2019-02-22T12:34:09.235Z,91.66
2019-02-22T12:35:09.196Z,90.89
2019-02-22T12:36:09.707Z,90.89
2019-02-22T12:37:09.180Z,91.28
2019-02-22T12:38:09.174Z,93.27
2019-02-22T12:39:09.165Z,94.70
2019-02-22T12:40:09.154Z,93.75
2019-02-22T12:41:09.145Z,93.08
2019-02-22T12:42:09.138Z,94.42
2019-02-22T12:43:09.131Z,94.89
2019-02-22T12:44:09.130Z,93.46
2019-02-22T12:45:09.114Z,93.55
2019-02-22T12:46:09.115Z,93.55
2019-02-22T12:47:10.174Z,94.42
2019-02-22T12:48:09.113Z,92.70
2019-02-22T12:49:09.081Z,92.70
2019-02-22T12:50:09.074Z,95.17
2019-02-22T12:51:09.071Z,95.08
2019-02-22T12:52:09.055Z,95.84
2019-02-22T12:53:09.049Z,94.70
2019-02-22T12:54:09.039Z,94.22
2019-02-22T12:55:09.030Z,94.98
2019-02-22T12:56:09.022Z,96.55
2019-02-22T12:57:09.012Z,96.84
2019-02-22T12:58:09.006Z,96.36
2019-02-22T12:59:08.996Z,96.08
2019-02-22T13:00:08.997Z,97.60
2019-02-22T13:01:08.980Z,96.41
2019-02-22T13:02:08.971Z,96.50
2019-02-22T13:03:08.976Z,96.69
2019-02-22T13:04:08.972Z,97.27
2019-02-22T13:05:08.948Z,98.60
2019-02-22T13:06:08.942Z,96.41
2019-02-22T13:07:08.929Z,96.12
2019-02-22T13:08:08.925Z,97.83
2019-02-22T13:09:08.917Z,98.79
2019-02-22T13:10:08.910Z,96.89
2019-02-22T13:11:08.913Z,97.27
2019-02-22T13:12:14.035Z,97.36
2019-02-22T13:13:08.881Z,96.89
2019-02-22T13:14:09.055Z,96.69
2019-02-22T13:15:14.238Z,97.64
2019-02-22T13:16:08.857Z,96.31
2019-02-22T13:17:08.845Z,95.17
2019-02-22T13:18:08.843Z,95.36
2019-02-22T13:19:08.831Z,94.79
2019-02-22T13:20:08.823Z,94.32
2019-02-22T13:21:08.819Z,94.42
2019-02-22T13:22:08.803Z,94.03
2019-02-22T13:23:08.797Z,93.46
2019-02-22T13:24:08.789Z,94.89
2019-02-22T13:25:08.780Z,93.75
2019-02-22T13:26:08.772Z,93.55
2019-02-22T13:27:08.767Z,93.37
2019-02-22T13:28:08.754Z,95.56
2019-02-22T13:29:08.743Z,95.46
2019-02-22T13:30:08.738Z,95.94
2019-02-22T13:31:08.741Z,95.17
2019-02-22T13:32:08.720Z,92.85
2019-02-22T13:33:08.711Z,91.61
2019-02-22T13:34:08.702Z,91.13
2019-02-22T13:35:10.885Z,90.00
2019-02-22T13:36:08.689Z,88.00
2019-02-22T13:37:08.679Z,89.71
2019-02-22T13:38:08.707Z,88.67
2019-02-22T13:39:08.661Z,89.23
2019-02-22T13:40:08.653Z,90.19
2019-02-22T13:41:08.642Z,88.76
2019-02-22T13:42:08.635Z,89.23
2019-02-22T13:43:08.624Z,88.76
2019-02-22T13:44:08.618Z,86.76
2019-02-22T13:45:09.482Z,87.34
2019-02-22T13:46:08.599Z,86.47
2019-02-22T13:47:08.596Z,84.72
2019-02-22T13:48:08.588Z,83.87
2019-02-22T13:49:08.575Z,83.97
2019-02-22T13:50:08.565Z,81.87
2019-02-22T13:51:08.582Z,82.45
2019-02-22T13:52:08.546Z,81.87
2019-02-22T13:53:08.536Z,80.74
2019-02-22T13:54:08.528Z,80.55
2019-02-22T13:55:08.519Z,79.97
2019-02-22T13:56:08.510Z,79.50
2019-02-22T13:57:08.499Z,83.87
2019-02-22T13:58:08.491Z,85.49
2019-02-22T13:59:08.775Z,84.34
2019-02-22T14:00:08.474Z,84.16
2019-02-22T14:01:08.463Z,82.35
2019-02-22T14:02:08.456Z,81.21
2019-02-22T14:03:08.447Z,81.21
2019-02-22T14:04:08.434Z,83.20
2019-02-22T14:05:08.431Z,82.73
2019-02-22T14:06:08.418Z,83.87
2019-02-22T14:07:08.407Z,83.30
2019-02-22T14:08:08.403Z,81.78
2019-02-22T14:09:08.391Z,82.07
2019-02-22T14:10:08.385Z,83.78
2019-02-22T14:11:08.372Z,82.82
2019-02-22T14:12:08.364Z,80.64
2019-02-22T14:13:08.353Z,81.78
2019-02-22T14:14:08.345Z,81.87
2019-02-22T14:15:08.341Z,81.30
2019-02-22T14:16:08.349Z,78.83
2019-02-22T14:17:08.319Z,80.74
2019-02-22T14:18:08.307Z,82.16
2019-02-22T14:19:08.303Z,88.15
2019-02-22T14:20:08.289Z,88.53
2019-02-22T14:21:08.281Z,87.19
2019-02-22T14:22:08.271Z,86.34
2019-02-22T14:23:08.261Z,86.05
2019-02-22T14:24:08.316Z,86.43
2019-02-22T14:25:08.241Z,86.43
2019-02-22T14:26:08.270Z,85.77
2019-02-22T14:27:08.223Z,86.72
2019-02-22T14:28:08.217Z,86.91
2019-02-22T14:29:08.205Z,85.96
2019-02-22T14:30:08.195Z,86.15
2019-02-22T14:31:08.186Z,87.19
2019-02-22T14:32:08.181Z,90.05
2019-02-22T14:33:08.166Z,88.53
2019-02-22T14:34:08.160Z,90.33
2019-02-22T14:35:08.172Z,92.04
2019-02-22T14:36:08.158Z,93.37
2019-02-22T14:37:08.153Z,92.61
2019-02-22T14:38:08.124Z,92.90
2019-02-22T14:39:08.186Z,92.61
2019-02-22T14:40:08.103Z,91.56
2019-02-22T14:41:08.093Z,91.28
2019-02-22T14:42:08.083Z,93.18
2019-02-22T14:43:16.211Z,92.13
2019-02-22T14:44:08.072Z,91.38
2019-02-22T14:45:08.058Z,91.85
2019-02-22T14:46:08.441Z,90.61
2019-02-22T14:47:08.042Z,90.90
2019-02-22T14:48:08.036Z,90.52
2019-02-22T14:49:08.021Z,91.19
2019-02-22T14:50:08.024Z,90.71
2019-02-22T14:51:08.002Z,90.90
2019-02-22T14:52:07.993Z,89.86
2019-02-22T14:53:18.871Z,92.94
2019-02-22T14:54:07.979Z,93.41
2019-02-22T14:55:07.965Z,94.65
2019-02-22T14:56:07.955Z,94.84
2019-02-22T14:57:07.953Z,94.42
2019-02-22T14:58:07.938Z,94.51
2019-02-22T14:59:07.935Z,94.79
2019-02-22T15:00:08.147Z,93.46
2019-02-22T15:01:07.915Z,92.99
2019-02-22T15:02:07.904Z,93.84
2019-02-22T15:03:07.927Z,94.89
2019-02-22T15:04:07.888Z,96.03
2019-02-22T15:05:09.106Z,93.94